sensor_id;sensor_type;location;lat;lon;timestamp;P1;durP1;ratioP1;P2;durP2;ratioP2
773;SDS011;370;48.810;9.150;2022-10-22T00:02:17;0.70;;;0.60;;
773;SDS011;370;48.810;9.150;2022-10-22T00:04:45;0.50;;;0.50;;
773;SDS011;370;48.810;9.150;2022-10-22T00:07:13;0.52;;;0.43;;
773;SDS011;370;48.810;9.150;2022-10-22T00:09:41;0.40;;;0.40;;
773;SDS011;370;48.810;9.150;2022-10-22T00:12:07;0.52;;;0.50;;
773;SDS011;370;48.810;9.150;2022-10-22T00:14:34;0.50;;;0.40;;
773;SDS011;370;48.810;9.150;2022-10-22T00:17:02;0.43;;;0.40;;
773;SDS011;370;48.810;9.150;2022-10-22T00:19:29;0.70;;;0.60;;
773;SDS011;370;48.810;9.150;2022-10-22T00:21:55;0.85;;;0.65;;
773;SDS011;370;48.810;9.150;2022-10-22T00:24:24;1.33;;;0.60;;
773;SDS011;370;48.810;9.150;2022-10-22T00:26:51;3.13;;;0.95;;
773;SDS011;370;48.810;9.150;2022-10-22T00:29:18;0.45;;;0.43;;
773;SDS011;370;48.810;9.150;2022-10-22T00:31:46;0.40;;;0.40;;
773;SDS011;370;48.810;9.150;2022-10-22T00:34:15;0.93;;;0.50;;
773;SDS011;370;48.810;9.150;2022-10-22T00:36:42;1.25;;;0.50;;
773;SDS011;370;48.810;9.150;2022-10-22T00:39:09;0.60;;;0.50;;
773;SDS011;370;48.810;9.150;2022-10-22T00:41:38;0.60;;;0.50;;
773;SDS011;370;48.810;9.150;2022-10-22T00:47:10;0.50;;;0.50;;
773;SDS011;370;48.810;9.150;2022-10-22T00:49:37;0.60;;;0.50;;
773;SDS011;370;48.810;9.150;2022-10-22T00:52:04;0.57;;;0.55;;
773;SDS011;370;48.810;9.150;2022-10-22T00:54:31;0.65;;;0.55;;
773;SDS011;370;48.810;9.150;2022-10-22T00:57:00;1.08;;;0.50;;
773;SDS011;370;48.810;9.150;2022-10-22T00:59:28;0.60;;;0.50;;
773;SDS011;370;48.810;9.150;2022-10-22T01:01:56;0.45;;;0.43;;
773;SDS011;370;48.810;9.150;2022-10-22T01:04:25;0.73;;;0.70;;
773;SDS011;370;48.810;9.150;2022-10-22T01:06:52;6.63;;;0.70;;
773;SDS011;370;48.810;9.150;2022-10-22T01:09:20;0.90;;;0.45;;
773;SDS011;370;48.810;9.150;2022-10-22T01:11:57;0.80;;;0.63;;
773;SDS011;370;48.810;9.150;2022-10-22T01:14:34;0.40;;;0.40;;
773;SDS011;370;48.810;9.150;2022-10-22T01:17:08;0.95;;;0.80;;
773;SDS011;370;48.810;9.150;2022-10-22T01:19:42;0.60;;;0.50;;
773;SDS011;370;48.810;9.150;2022-10-22T01:22:19;0.50;;;0.50;;
773;SDS011;370;48.810;9.150;2022-10-22T01:24:55;0.55;;;0.52;;
773;SDS011;370;48.810;9.150;2022-10-22T01:27:27;0.70;;;0.60;;
773;SDS011;370;48.810;9.150;2022-10-22T01:30:06;2.30;;;0.68;;
773;SDS011;370;48.810;9.150;2022-10-22T01:32:35;1.33;;;0.52;;
773;SDS011;370;48.810;9.150;2022-10-22T01:35:06;1.95;;;0.75;;
773;SDS011;370;48.810;9.150;2022-10-22T01:37:40;0.57;;;0.50;;
773;SDS011;370;48.810;9.150;2022-10-22T01:40:10;4.15;;;0.70;;
773;SDS011;370;48.810;9.150;2022-10-22T01:42:40;0.80;;;0.70;;
773;SDS011;370;48.810;9.150;2022-10-22T01:48:28;2.90;;;0.85;;
773;SDS011;370;48.810;9.150;2022-10-22T01:51:12;0.60;;;0.50;;
773;SDS011;370;48.810;9.150;2022-10-22T01:53:51;0.50;;;0.47;;
773;SDS011;370;48.810;9.150;2022-10-22T01:56:38;0.60;;;0.55;;
773;SDS011;370;48.810;9.150;2022-10-22T01:59:17;0.80;;;0.70;;
773;SDS011;370;48.810;9.150;2022-10-22T02:01:52;2.90;;;0.60;;
773;SDS011;370;48.810;9.150;2022-10-22T02:04:26;0.98;;;0.60;;
773;SDS011;370;48.810;9.150;2022-10-22T02:06:59;0.50;;;0.50;;
773;SDS011;370;48.810;9.150;2022-10-22T02:09:29;0.50;;;0.50;;
773;SDS011;370;48.810;9.150;2022-10-22T02:11:58;0.70;;;0.60;;
773;SDS011;370;48.810;9.150;2022-10-22T02:14:30;2.15;;;0.60;;
773;SDS011;370;48.810;9.150;2022-10-22T02:16:59;3.13;;;0.50;;
773;SDS011;370;48.810;9.150;2022-10-22T02:19:29;0.85;;;0.70;;
773;SDS011;370;48.810;9.150;2022-10-22T02:22:04;0.55;;;0.50;;
773;SDS011;370;48.810;9.150;2022-10-22T02:24:31;0.60;;;0.50;;
773;SDS011;370;48.810;9.150;2022-10-22T02:27:00;0.80;;;0.60;;
773;SDS011;370;48.810;9.150;2022-10-22T02:29:33;1.13;;;0.65;;
773;SDS011;370;48.810;9.150;2022-10-22T02:32:05;4.13;;;0.60;;
773;SDS011;370;48.810;9.150;2022-10-22T02:34:36;0.60;;;0.50;;
773;SDS011;370;48.810;9.150;2022-10-22T02:37:03;1.25;;;0.50;;
773;SDS011;370;48.810;9.150;2022-10-22T02:39:31;1.55;;;0.80;;
773;SDS011;370;48.810;9.150;2022-10-22T02:41:59;2.17;;;1.40;;
773;SDS011;370;48.810;9.150;2022-10-22T02:44:27;2.13;;;1.38;;
773;SDS011;370;48.810;9.150;2022-10-22T02:46:54;0.60;;;0.50;;
773;SDS011;370;48.810;9.150;2022-10-22T02:49:27;0.60;;;0.50;;
773;SDS011;370;48.810;9.150;2022-10-22T02:51:55;0.82;;;0.60;;
773;SDS011;370;48.810;9.150;2022-10-22T02:54:23;0.70;;;0.60;;
773;SDS011;370;48.810;9.150;2022-10-22T02:56:50;0.50;;;0.50;;
773;SDS011;370;48.810;9.150;2022-10-22T02:59:17;2.65;;;0.90;;
773;SDS011;370;48.810;9.150;2022-10-22T03:01:43;2.93;;;0.57;;
773;SDS011;370;48.810;9.150;2022-10-22T03:04:10;2.25;;;0.93;;
773;SDS011;370;48.810;9.150;2022-10-22T03:06:37;0.90;;;0.70;;
773;SDS011;370;48.810;9.150;2022-10-22T03:09:09;0.70;;;0.60;;
773;SDS011;370;48.810;9.150;2022-10-22T03:11:35;0.68;;;0.50;;
773;SDS011;370;48.810;9.150;2022-10-22T03:14:02;2.10;;;0.80;;
773;SDS011;370;48.810;9.150;2022-10-22T03:16:29;0.70;;;0.50;;
773;SDS011;370;48.810;9.150;2022-10-22T03:18:58;0.80;;;0.60;;
773;SDS011;370;48.810;9.150;2022-10-22T03:21:27;0.82;;;0.50;;
773;SDS011;370;48.810;9.150;2022-10-22T03:23:59;0.70;;;0.60;;
773;SDS011;370;48.810;9.150;2022-10-22T03:26:29;3.63;;;0.57;;
773;SDS011;370;48.810;9.150;2022-10-22T03:28:57;0.80;;;0.70;;
773;SDS011;370;48.810;9.150;2022-10-22T03:31:25;3.43;;;0.97;;
773;SDS011;370;48.810;9.150;2022-10-22T03:33:51;0.90;;;0.80;;
773;SDS011;370;48.810;9.150;2022-10-22T03:36:18;0.70;;;0.60;;
773;SDS011;370;48.810;9.150;2022-10-22T03:38:45;1.42;;;0.82;;
773;SDS011;370;48.810;9.150;2022-10-22T03:41:12;0.73;;;0.65;;
773;SDS011;370;48.810;9.150;2022-10-22T03:43:40;0.65;;;0.57;;
773;SDS011;370;48.810;9.150;2022-10-22T03:46:09;0.60;;;0.50;;
773;SDS011;370;48.810;9.150;2022-10-22T03:48:35;0.80;;;0.57;;
773;SDS011;370;48.810;9.150;2022-10-22T03:51:02;0.70;;;0.63;;
773;SDS011;370;48.810;9.150;2022-10-22T03:53:29;1.45;;;0.77;;
773;SDS011;370;48.810;9.150;2022-10-22T03:55:56;0.65;;;0.60;;
773;SDS011;370;48.810;9.150;2022-10-22T03:58:23;0.50;;;0.50;;
773;SDS011;370;48.810;9.150;2022-10-22T04:00:51;0.55;;;0.47;;
773;SDS011;370;48.810;9.150;2022-10-22T04:03:18;3.70;;;0.93;;
773;SDS011;370;48.810;9.150;2022-10-22T04:05:45;0.60;;;0.55;;
773;SDS011;370;48.810;9.150;2022-10-22T04:08:12;1.00;;;0.60;;
773;SDS011;370;48.810;9.150;2022-10-22T04:10:38;1.23;;;0.85;;
773;SDS011;370;48.810;9.150;2022-10-22T04:13:05;0.90;;;0.80;;
773;SDS011;370;48.810;9.150;2022-10-22T04:15:32;1.03;;;0.60;;
773;SDS011;370;48.810;9.150;2022-10-22T04:18:00;0.60;;;0.50;;
773;SDS011;370;48.810;9.150;2022-10-22T04:20:27;1.10;;;0.60;;
773;SDS011;370;48.810;9.150;2022-10-22T04:22:54;0.73;;;0.70;;
773;SDS011;370;48.810;9.150;2022-10-22T04:25:20;2.00;;;0.60;;
773;SDS011;370;48.810;9.150;2022-10-22T04:27:47;0.60;;;0.50;;
773;SDS011;370;48.810;9.150;2022-10-22T04:30:14;0.60;;;0.50;;
773;SDS011;370;48.810;9.150;2022-10-22T04:32:40;2.53;;;0.67;;
773;SDS011;370;48.810;9.150;2022-10-22T04:35:09;0.60;;;0.50;;
773;SDS011;370;48.810;9.150;2022-10-22T04:37:35;0.97;;;0.93;;
773;SDS011;370;48.810;9.150;2022-10-22T04:40:02;2.67;;;1.00;;
773;SDS011;370;48.810;9.150;2022-10-22T04:42:30;1.43;;;0.70;;
773;SDS011;370;48.810;9.150;2022-10-22T04:44:56;0.70;;;0.60;;
773;SDS011;370;48.810;9.150;2022-10-22T04:47:23;2.60;;;0.63;;
773;SDS011;370;48.810;9.150;2022-10-22T04:49:50;7.18;;;0.82;;
773;SDS011;370;48.810;9.150;2022-10-22T04:52:18;0.60;;;0.50;;
773;SDS011;370;48.810;9.150;2022-10-22T04:54:45;1.10;;;0.75;;
773;SDS011;370;48.810;9.150;2022-10-22T04:57:12;0.60;;;0.50;;
773;SDS011;370;48.810;9.150;2022-10-22T04:59:39;0.60;;;0.50;;
773;SDS011;370;48.810;9.150;2022-10-22T05:02:05;0.65;;;0.55;;
773;SDS011;370;48.810;9.150;2022-10-22T05:04:32;0.70;;;0.60;;
773;SDS011;370;48.810;9.150;2022-10-22T05:06:59;0.65;;;0.57;;
773;SDS011;370;48.810;9.150;2022-10-22T05:09:27;1.20;;;0.50;;
773;SDS011;370;48.810;9.150;2022-10-22T05:11:54;0.60;;;0.50;;
773;SDS011;370;48.810;9.150;2022-10-22T05:14:21;0.77;;;0.70;;
773;SDS011;370;48.810;9.150;2022-10-22T05:16:49;0.93;;;0.60;;
773;SDS011;370;48.810;9.150;2022-10-22T05:19:18;0.57;;;0.50;;
773;SDS011;370;48.810;9.150;2022-10-22T05:21:48;0.90;;;0.70;;
773;SDS011;370;48.810;9.150;2022-10-22T05:24:14;1.90;;;0.50;;
773;SDS011;370;48.810;9.150;2022-10-22T05:26:43;0.77;;;0.70;;
773;SDS011;370;48.810;9.150;2022-10-22T05:29:10;0.73;;;0.63;;
773;SDS011;370;48.810;9.150;2022-10-22T05:31:36;0.60;;;0.50;;
773;SDS011;370;48.810;9.150;2022-10-22T05:34:03;0.60;;;0.50;;
773;SDS011;370;48.810;9.150;2022-10-22T05:36:30;0.40;;;0.40;;
773;SDS011;370;48.810;9.150;2022-10-22T05:38:57;0.60;;;0.60;;
773;SDS011;370;48.810;9.150;2022-10-22T05:41:24;4.23;;;0.60;;
773;SDS011;370;48.810;9.150;2022-10-22T05:43:54;0.63;;;0.53;;
773;SDS011;370;48.810;9.150;2022-10-22T05:46:23;2.93;;;0.53;;
773;SDS011;370;48.810;9.150;2022-10-22T05:48:52;0.50;;;0.50;;
773;SDS011;370;48.810;9.150;2022-10-22T05:51:23;5.50;;;0.73;;
773;SDS011;370;48.810;9.150;2022-10-22T05:53:51;1.23;;;0.60;;
773;SDS011;370;48.810;9.150;2022-10-22T05:56:20;0.97;;;0.80;;
773;SDS011;370;48.810;9.150;2022-10-22T05:58:47;0.60;;;0.50;;
773;SDS011;370;48.810;9.150;2022-10-22T06:01:16;1.70;;;0.63;;
773;SDS011;370;48.810;9.150;2022-10-22T06:03:45;0.53;;;0.50;;
773;SDS011;370;48.810;9.150;2022-10-22T06:06:15;1.63;;;0.70;;
773;SDS011;370;48.810;9.150;2022-10-22T06:08:45;3.03;;;1.00;;
773;SDS011;370;48.810;9.150;2022-10-22T06:11:13;1.37;;;1.07;;
773;SDS011;370;48.810;9.150;2022-10-22T06:13:42;10.97;;;2.10;;
773;SDS011;370;48.810;9.150;2022-10-22T06:16:09;4.83;;;1.73;;
773;SDS011;370;48.810;9.150;2022-10-22T06:18:38;2.93;;;1.50;;
773;SDS011;370;48.810;9.150;2022-10-22T06:21:05;2.73;;;1.57;;
773;SDS011;370;48.810;9.150;2022-10-22T06:23:34;0.83;;;0.70;;
773;SDS011;370;48.810;9.150;2022-10-22T06:26:02;0.70;;;0.60;;
773;SDS011;370;48.810;9.150;2022-10-22T06:28:30;1.03;;;0.60;;
773;SDS011;370;48.810;9.150;2022-10-22T06:30:58;0.60;;;0.50;;
773;SDS011;370;48.810;9.150;2022-10-22T06:33:26;0.50;;;0.50;;
773;SDS011;370;48.810;9.150;2022-10-22T06:36:02;0.70;;;0.53;;
773;SDS011;370;48.810;9.150;2022-10-22T06:38:30;0.50;;;0.50;;
773;SDS011;370;48.810;9.150;2022-10-22T06:41:00;1.07;;;0.80;;
773;SDS011;370;48.810;9.150;2022-10-22T06:43:28;0.70;;;0.60;;
773;SDS011;370;48.810;9.150;2022-10-22T06:45:57;0.83;;;0.50;;
773;SDS011;370;48.810;9.150;2022-10-22T06:48:25;0.60;;;0.50;;
773;SDS011;370;48.810;9.150;2022-10-22T06:50:52;0.60;;;0.60;;
773;SDS011;370;48.810;9.150;2022-10-22T06:53:21;0.60;;;0.50;;
773;SDS011;370;48.810;9.150;2022-10-22T06:55:48;0.90;;;0.60;;
773;SDS011;370;48.810;9.150;2022-10-22T06:58:15;0.70;;;0.60;;
773;SDS011;370;48.810;9.150;2022-10-22T07:00:42;0.93;;;0.60;;
773;SDS011;370;48.810;9.150;2022-10-22T07:03:10;0.80;;;0.70;;
773;SDS011;370;48.810;9.150;2022-10-22T07:05:38;0.70;;;0.60;;
773;SDS011;370;48.810;9.150;2022-10-22T07:08:05;0.60;;;0.50;;
773;SDS011;370;48.810;9.150;2022-10-22T07:10:34;1.17;;;0.70;;
773;SDS011;370;48.810;9.150;2022-10-22T07:13:02;3.80;;;0.70;;
773;SDS011;370;48.810;9.150;2022-10-22T07:15:30;0.50;;;0.50;;
773;SDS011;370;48.810;9.150;2022-10-22T07:20:33;0.70;;;0.60;;
773;SDS011;370;48.810;9.150;2022-10-22T07:23:01;1.37;;;1.00;;
773;SDS011;370;48.810;9.150;2022-10-22T07:25:28;0.63;;;0.53;;
773;SDS011;370;48.810;9.150;2022-10-22T07:27:56;0.60;;;0.60;;
773;SDS011;370;48.810;9.150;2022-10-22T07:30:23;3.73;;;0.90;;
773;SDS011;370;48.810;9.150;2022-10-22T07:32:50;0.60;;;0.60;;
773;SDS011;370;48.810;9.150;2022-10-22T07:35:17;0.80;;;0.70;;
773;SDS011;370;48.810;9.150;2022-10-22T07:37:43;0.70;;;0.70;;
773;SDS011;370;48.810;9.150;2022-10-22T07:40:10;0.97;;;0.80;;
773;SDS011;370;48.810;9.150;2022-10-22T07:42:37;0.83;;;0.73;;
773;SDS011;370;48.810;9.150;2022-10-22T07:45:06;0.90;;;0.80;;
773;SDS011;370;48.810;9.150;2022-10-22T07:47:34;1.00;;;0.90;;
773;SDS011;370;48.810;9.150;2022-10-22T07:50:00;0.80;;;0.73;;
773;SDS011;370;48.810;9.150;2022-10-22T07:52:27;2.50;;;0.83;;
773;SDS011;370;48.810;9.150;2022-10-22T07:54:55;0.97;;;0.87;;
773;SDS011;370;48.810;9.150;2022-10-22T07:57:22;0.70;;;0.60;;
773;SDS011;370;48.810;9.150;2022-10-22T07:59:49;3.63;;;0.83;;
773;SDS011;370;48.810;9.150;2022-10-22T08:02:17;1.33;;;0.83;;
773;SDS011;370;48.810;9.150;2022-10-22T08:04:44;0.60;;;0.50;;
773;SDS011;370;48.810;9.150;2022-10-22T08:07:11;0.80;;;0.70;;
773;SDS011;370;48.810;9.150;2022-10-22T08:09:38;2.87;;;0.60;;
773;SDS011;370;48.810;9.150;2022-10-22T08:12:05;0.67;;;0.60;;
773;SDS011;370;48.810;9.150;2022-10-22T08:14:32;0.60;;;0.60;;
773;SDS011;370;48.810;9.150;2022-10-22T08:16:59;1.93;;;0.87;;
773;SDS011;370;48.810;9.150;2022-10-22T08:19:27;0.77;;;0.73;;
773;SDS011;370;48.810;9.150;2022-10-22T08:21:56;0.60;;;0.50;;
773;SDS011;370;48.810;9.150;2022-10-22T08:24:23;17.67;;;0.90;;
773;SDS011;370;48.810;9.150;2022-10-22T08:26:52;0.83;;;0.73;;
773;SDS011;370;48.810;9.150;2022-10-22T08:29:19;0.80;;;0.70;;
773;SDS011;370;48.810;9.150;2022-10-22T08:31:47;0.80;;;0.70;;
773;SDS011;370;48.810;9.150;2022-10-22T08:34:15;0.83;;;0.73;;
773;SDS011;370;48.810;9.150;2022-10-22T08:36:44;0.80;;;0.70;;
773;SDS011;370;48.810;9.150;2022-10-22T08:39:11;0.83;;;0.73;;
773;SDS011;370;48.810;9.150;2022-10-22T08:41:40;1.43;;;0.87;;
773;SDS011;370;48.810;9.150;2022-10-22T08:44:19;0.87;;;0.80;;
773;SDS011;370;48.810;9.150;2022-10-22T08:47:17;6.27;;;1.00;;
773;SDS011;370;48.810;9.150;2022-10-22T08:49:52;1.17;;;1.00;;
773;SDS011;370;48.810;9.150;2022-10-22T08:52:22;1.00;;;0.90;;
773;SDS011;370;48.810;9.150;2022-10-22T08:54:50;1.03;;;1.00;;
773;SDS011;370;48.810;9.150;2022-10-22T08:57:22;0.93;;;0.87;;
773;SDS011;370;48.810;9.150;2022-10-22T09:00:01;0.83;;;0.77;;
773;SDS011;370;48.810;9.150;2022-10-22T09:02:35;4.47;;;0.90;;
773;SDS011;370;48.810;9.150;2022-10-22T09:05:16;1.20;;;1.00;;
773;SDS011;370;48.810;9.150;2022-10-22T09:07:53;1.10;;;1.10;;
773;SDS011;370;48.810;9.150;2022-10-22T09:10:21;3.33;;;1.10;;
773;SDS011;370;48.810;9.150;2022-10-22T09:12:52;1.80;;;1.00;;
773;SDS011;370;48.810;9.150;2022-10-22T09:15:19;1.30;;;1.20;;
773;SDS011;370;48.810;9.150;2022-10-22T09:17:49;1.43;;;1.20;;
773;SDS011;370;48.810;9.150;2022-10-22T09:20:31;2.07;;;1.27;;
773;SDS011;370;48.810;9.150;2022-10-22T09:23:09;1.30;;;1.20;;
773;SDS011;370;48.810;9.150;2022-10-22T09:25:46;4.50;;;1.33;;
773;SDS011;370;48.810;9.150;2022-10-22T09:28:16;1.57;;;1.50;;
773;SDS011;370;48.810;9.150;2022-10-22T09:30:44;1.33;;;1.27;;
773;SDS011;370;48.810;9.150;2022-10-22T09:33:13;8.93;;;1.50;;
773;SDS011;370;48.810;9.150;2022-10-22T09:35:43;1.20;;;1.13;;
773;SDS011;370;48.810;9.150;2022-10-22T09:38:14;1.30;;;1.20;;
773;SDS011;370;48.810;9.150;2022-10-22T09:40:44;1.60;;;1.17;;
773;SDS011;370;48.810;9.150;2022-10-22T09:43:13;1.40;;;1.30;;
773;SDS011;370;48.810;9.150;2022-10-22T09:45:41;5.10;;;1.50;;
773;SDS011;370;48.810;9.150;2022-10-22T09:48:10;5.33;;;1.50;;
773;SDS011;370;48.810;9.150;2022-10-22T09:50:44;5.23;;;1.20;;
773;SDS011;370;48.810;9.150;2022-10-22T09:53:16;3.57;;;1.40;;
773;SDS011;370;48.810;9.150;2022-10-22T09:55:48;1.50;;;1.40;;
773;SDS011;370;48.810;9.150;2022-10-22T09:58:17;1.73;;;1.63;;
773;SDS011;370;48.810;9.150;2022-10-22T10:03:31;2.13;;;1.60;;
773;SDS011;370;48.810;9.150;2022-10-22T10:05:58;2.73;;;1.53;;
773;SDS011;370;48.810;9.150;2022-10-22T10:08:28;1.60;;;1.43;;
773;SDS011;370;48.810;9.150;2022-10-22T10:10:55;1.97;;;1.83;;
773;SDS011;370;48.810;9.150;2022-10-22T10:13:33;2.33;;;1.70;;
773;SDS011;370;48.810;9.150;2022-10-22T10:16:09;1.57;;;1.33;;
773;SDS011;370;48.810;9.150;2022-10-22T10:18:52;1.40;;;1.30;;
773;SDS011;370;48.810;9.150;2022-10-22T10:21:29;2.03;;;1.57;;
773;SDS011;370;48.810;9.150;2022-10-22T10:24:09;1.43;;;1.33;;
773;SDS011;370;48.810;9.150;2022-10-22T10:26:48;1.73;;;1.50;;
773;SDS011;370;48.810;9.150;2022-10-22T10:29:23;2.13;;;1.43;;
773;SDS011;370;48.810;9.150;2022-10-22T10:32:04;1.50;;;1.40;;
773;SDS011;370;48.810;9.150;2022-10-22T10:34:42;5.13;;;1.60;;
773;SDS011;370;48.810;9.150;2022-10-22T10:37:17;4.00;;;1.70;;
773;SDS011;370;48.810;9.150;2022-10-22T10:39:55;1.60;;;1.50;;
773;SDS011;370;48.810;9.150;2022-10-22T10:42:35;1.53;;;1.43;;
773;SDS011;370;48.810;9.150;2022-10-22T10:45:09;1.60;;;1.50;;
773;SDS011;370;48.810;9.150;2022-10-22T10:47:47;1.67;;;1.57;;
773;SDS011;370;48.810;9.150;2022-10-22T10:50:25;1.80;;;1.63;;
773;SDS011;370;48.810;9.150;2022-10-22T10:52:59;1.47;;;1.43;;
773;SDS011;370;48.810;9.150;2022-10-22T10:55:34;3.10;;;1.37;;
773;SDS011;370;48.810;9.150;2022-10-22T10:58:10;2.30;;;1.87;;
773;SDS011;370;48.810;9.150;2022-10-22T11:00:45;1.90;;;1.80;;
773;SDS011;370;48.810;9.150;2022-10-22T11:03:39;1.87;;;1.77;;
773;SDS011;370;48.810;9.150;2022-10-22T11:06:19;1.63;;;1.60;;
773;SDS011;370;48.810;9.150;2022-10-22T11:08:49;1.53;;;1.43;;
773;SDS011;370;48.810;9.150;2022-10-22T11:11:24;1.60;;;1.50;;
773;SDS011;370;48.810;9.150;2022-10-22T11:13:56;3.40;;;1.53;;
773;SDS011;370;48.810;9.150;2022-10-22T11:16:28;1.73;;;1.57;;
773;SDS011;370;48.810;9.150;2022-10-22T11:19:01;1.83;;;1.60;;
773;SDS011;370;48.810;9.150;2022-10-22T11:21:31;1.90;;;1.80;;
773;SDS011;370;48.810;9.150;2022-10-22T11:24:07;1.70;;;1.60;;
773;SDS011;370;48.810;9.150;2022-10-22T11:26:42;1.87;;;1.43;;
773;SDS011;370;48.810;9.150;2022-10-22T11:29:14;2.60;;;1.60;;
773;SDS011;370;48.810;9.150;2022-10-22T11:31:46;1.30;;;1.20;;
773;SDS011;370;48.810;9.150;2022-10-22T11:34:15;2.97;;;1.20;;
773;SDS011;370;48.810;9.150;2022-10-22T11:36:45;1.10;;;1.10;;
773;SDS011;370;48.810;9.150;2022-10-22T11:42:02;1.30;;;1.20;;
773;SDS011;370;48.810;9.150;2022-10-22T11:44:30;1.30;;;1.20;;
773;SDS011;370;48.810;9.150;2022-10-22T11:47:07;1.67;;;1.60;;
773;SDS011;370;48.810;9.150;2022-10-22T11:49:41;2.90;;;1.43;;
773;SDS011;370;48.810;9.150;2022-10-22T11:52:24;1.30;;;1.20;;
773;SDS011;370;48.810;9.150;2022-10-22T11:55:02;1.27;;;1.23;;
773;SDS011;370;48.810;9.150;2022-10-22T12:01:15;2.80;;;1.30;;
773;SDS011;370;48.810;9.150;2022-10-22T12:03:48;1.30;;;1.20;;
773;SDS011;370;48.810;9.150;2022-10-22T12:06:17;1.43;;;1.17;;
773;SDS011;370;48.810;9.150;2022-10-22T12:08:50;1.57;;;1.00;;
773;SDS011;370;48.810;9.150;2022-10-22T12:11:24;1.30;;;0.90;;
773;SDS011;370;48.810;9.150;2022-10-22T12:14:00;2.97;;;1.07;;
773;SDS011;370;48.810;9.150;2022-10-22T12:16:37;3.50;;;0.90;;
773;SDS011;370;48.810;9.150;2022-10-22T12:19:10;8.30;;;1.30;;
773;SDS011;370;48.810;9.150;2022-10-22T12:21:40;1.47;;;1.00;;
773;SDS011;370;48.810;9.150;2022-10-22T12:24:09;1.40;;;1.10;;
773;SDS011;370;48.810;9.150;2022-10-22T12:26:39;1.00;;;0.90;;
773;SDS011;370;48.810;9.150;2022-10-22T12:29:10;2.50;;;1.17;;
773;SDS011;370;48.810;9.150;2022-10-22T12:31:38;1.57;;;1.23;;
773;SDS011;370;48.810;9.150;2022-10-22T12:34:06;3.57;;;1.10;;
773;SDS011;370;48.810;9.150;2022-10-22T12:36:37;2.10;;;1.03;;
773;SDS011;370;48.810;9.150;2022-10-22T12:39:08;1.97;;;0.90;;
773;SDS011;370;48.810;9.150;2022-10-22T12:41:38;3.60;;;0.97;;
773;SDS011;370;48.810;9.150;2022-10-22T12:44:05;2.73;;;1.20;;
773;SDS011;370;48.810;9.150;2022-10-22T12:46:33;1.43;;;0.93;;
773;SDS011;370;48.810;9.150;2022-10-22T12:49:02;1.93;;;1.00;;
773;SDS011;370;48.810;9.150;2022-10-22T12:51:33;1.63;;;0.90;;
773;SDS011;370;48.810;9.150;2022-10-22T12:54:00;1.20;;;1.10;;
773;SDS011;370;48.810;9.150;2022-10-22T12:56:32;1.03;;;0.80;;
773;SDS011;370;48.810;9.150;2022-10-22T12:59:01;1.67;;;0.90;;
773;SDS011;370;48.810;9.150;2022-10-22T13:01:31;1.03;;;1.00;;
773;SDS011;370;48.810;9.150;2022-10-22T13:04:05;1.03;;;0.80;;
773;SDS011;370;48.810;9.150;2022-10-22T13:06:43;5.50;;;0.80;;
773;SDS011;370;48.810;9.150;2022-10-22T13:09:13;1.10;;;1.00;;
773;SDS011;370;48.810;9.150;2022-10-22T13:11:47;4.60;;;0.93;;
773;SDS011;370;48.810;9.150;2022-10-22T13:14:18;1.00;;;0.80;;
773;SDS011;370;48.810;9.150;2022-10-22T13:17:04;0.93;;;0.80;;
773;SDS011;370;48.810;9.150;2022-10-22T13:19:40;5.40;;;0.90;;
773;SDS011;370;48.810;9.150;2022-10-22T13:22:26;3.13;;;0.90;;
773;SDS011;370;48.810;9.150;2022-10-22T13:24:55;1.13;;;0.90;;
773;SDS011;370;48.810;9.150;2022-10-22T13:27:24;1.03;;;0.87;;
773;SDS011;370;48.810;9.150;2022-10-22T13:29:52;0.80;;;0.73;;
773;SDS011;370;48.810;9.150;2022-10-22T13:32:24;0.80;;;0.70;;
773;SDS011;370;48.810;9.150;2022-10-22T13:34:56;2.97;;;1.20;;
773;SDS011;370;48.810;9.150;2022-10-22T13:37:25;1.30;;;0.77;;
773;SDS011;370;48.810;9.150;2022-10-22T13:39:53;1.00;;;0.77;;
773;SDS011;370;48.810;9.150;2022-10-22T13:42:20;3.17;;;1.13;;
773;SDS011;370;48.810;9.150;2022-10-22T13:44:47;7.67;;;1.37;;
773;SDS011;370;48.810;9.150;2022-10-22T13:47:17;1.17;;;0.80;;
773;SDS011;370;48.810;9.150;2022-10-22T13:49:52;1.20;;;0.80;;
773;SDS011;370;48.810;9.150;2022-10-22T13:52:25;3.80;;;1.00;;
773;SDS011;370;48.810;9.150;2022-10-22T13:54:55;2.10;;;0.80;;
773;SDS011;370;48.810;9.150;2022-10-22T13:57:21;3.90;;;1.10;;
773;SDS011;370;48.810;9.150;2022-10-22T13:59:48;1.17;;;0.80;;
773;SDS011;370;48.810;9.150;2022-10-22T14:02:15;1.00;;;0.90;;
773;SDS011;370;48.810;9.150;2022-10-22T14:04:44;1.80;;;0.93;;
773;SDS011;370;48.810;9.150;2022-10-22T14:07:12;1.47;;;0.70;;
773;SDS011;370;48.810;9.150;2022-10-22T14:09:40;0.73;;;0.63;;
773;SDS011;370;48.810;9.150;2022-10-22T14:12:09;3.80;;;0.80;;
773;SDS011;370;48.810;9.150;2022-10-22T14:14:37;3.60;;;0.83;;
773;SDS011;370;48.810;9.150;2022-10-22T14:17:04;1.77;;;0.90;;
773;SDS011;370;48.810;9.150;2022-10-22T14:19:34;0.93;;;0.83;;
773;SDS011;370;48.810;9.150;2022-10-22T14:22:02;1.67;;;1.00;;
773;SDS011;370;48.810;9.150;2022-10-22T14:24:29;1.47;;;0.80;;
773;SDS011;370;48.810;9.150;2022-10-22T14:26:56;0.83;;;0.70;;
773;SDS011;370;48.810;9.150;2022-10-22T14:29:22;3.10;;;1.90;;
773;SDS011;370;48.810;9.150;2022-10-22T14:31:49;4.63;;;0.90;;
773;SDS011;370;48.810;9.150;2022-10-22T14:34:16;2.30;;;0.90;;
773;SDS011;370;48.810;9.150;2022-10-22T14:36:43;1.13;;;0.80;;
773;SDS011;370;48.810;9.150;2022-10-22T14:39:11;0.80;;;0.60;;
773;SDS011;370;48.810;9.150;2022-10-22T14:41:39;2.20;;;0.83;;
773;SDS011;370;48.810;9.150;2022-10-22T14:44:07;0.93;;;0.87;;
773;SDS011;370;48.810;9.150;2022-10-22T14:46:36;0.93;;;0.80;;
773;SDS011;370;48.810;9.150;2022-10-22T14:49:04;0.90;;;0.90;;
773;SDS011;370;48.810;9.150;2022-10-22T14:51:31;2.20;;;1.00;;
773;SDS011;370;48.810;9.150;2022-10-22T14:53:58;1.80;;;0.97;;
773;SDS011;370;48.810;9.150;2022-10-22T14:56:26;6.67;;;1.00;;
773;SDS011;370;48.810;9.150;2022-10-22T14:58:53;0.90;;;0.87;;
773;SDS011;370;48.810;9.150;2022-10-22T15:01:20;0.93;;;0.87;;
773;SDS011;370;48.810;9.150;2022-10-22T15:03:47;3.63;;;1.50;;
773;SDS011;370;48.810;9.150;2022-10-22T15:06:14;1.37;;;0.90;;
773;SDS011;370;48.810;9.150;2022-10-22T15:08:40;1.10;;;0.97;;
773;SDS011;370;48.810;9.150;2022-10-22T15:11:09;6.47;;;0.97;;
773;SDS011;370;48.810;9.150;2022-10-22T15:13:38;3.80;;;1.00;;
773;SDS011;370;48.810;9.150;2022-10-22T15:16:06;3.03;;;1.23;;
773;SDS011;370;48.810;9.150;2022-10-22T15:18:35;0.83;;;0.73;;
773;SDS011;370;48.810;9.150;2022-10-22T15:21:02;1.67;;;0.90;;
773;SDS011;370;48.810;9.150;2022-10-22T15:23:31;4.80;;;1.00;;
773;SDS011;370;48.810;9.150;2022-10-22T15:26:00;1.63;;;1.00;;
773;SDS011;370;48.810;9.150;2022-10-22T15:28:27;7.83;;;1.07;;
773;SDS011;370;48.810;9.150;2022-10-22T15:30:56;2.30;;;1.00;;
773;SDS011;370;48.810;9.150;2022-10-22T15:33:24;10.23;;;1.17;;
773;SDS011;370;48.810;9.150;2022-10-22T15:35:51;3.70;;;1.13;;
773;SDS011;370;48.810;9.150;2022-10-22T15:38:18;1.80;;;1.10;;
773;SDS011;370;48.810;9.150;2022-10-22T15:40:45;8.40;;;4.40;;
773;SDS011;370;48.810;9.150;2022-10-22T15:43:12;1.90;;;1.47;;
773;SDS011;370;48.810;9.150;2022-10-22T15:45:39;4.03;;;1.50;;
773;SDS011;370;48.810;9.150;2022-10-22T15:48:07;6.90;;;1.70;;
773;SDS011;370;48.810;9.150;2022-10-22T15:50:36;1.63;;;1.10;;
773;SDS011;370;48.810;9.150;2022-10-22T15:53:03;9.27;;;1.80;;
773;SDS011;370;48.810;9.150;2022-10-22T15:55:31;17.23;;;1.93;;
773;SDS011;370;48.810;9.150;2022-10-22T15:57:58;3.73;;;1.37;;
773;SDS011;370;48.810;9.150;2022-10-22T16:00:25;3.93;;;1.40;;
773;SDS011;370;48.810;9.150;2022-10-22T16:02:52;3.03;;;1.00;;
773;SDS011;370;48.810;9.150;2022-10-22T16:05:20;3.23;;;1.30;;
773;SDS011;370;48.810;9.150;2022-10-22T16:07:47;4.73;;;1.20;;
773;SDS011;370;48.810;9.150;2022-10-22T16:10:15;3.47;;;1.90;;
773;SDS011;370;48.810;9.150;2022-10-22T16:12:42;3.23;;;1.60;;
773;SDS011;370;48.810;9.150;2022-10-22T16:15:09;1.90;;;1.30;;
773;SDS011;370;48.810;9.150;2022-10-22T16:17:36;7.93;;;1.20;;
773;SDS011;370;48.810;9.150;2022-10-22T16:20:03;3.37;;;1.20;;